sensor_id;sensor_type;location;lat;lon;timestamp;temperature;humidity
30186;DHT22;31152;49.190;8.122;2023-08-20T00:01:27;23.40;99.90
30186;DHT22;31152;49.190;8.122;2023-08-20T00:03:56;23.40;99.90
30186;DHT22;31152;49.190;8.122;2023-08-20T00:06:24;23.40;99.90
30186;DHT22;31152;49.190;8.122;2023-08-20T00:08:51;23.30;99.90
30186;DHT22;31152;49.190;8.122;2023-08-20T00:11:20;23.30;99.90
30186;DHT22;31152;49.190;8.122;2023-08-20T00:13:47;23.30;99.90
30186;DHT22;31152;49.190;8.122;2023-08-20T00:16:14;23.30;99.90
30186;DHT22;31152;49.190;8.122;2023-08-20T00:18:43;23.30;99.90
30186;DHT22;31152;49.190;8.122;2023-08-20T00:21:14;23.30;99.90
30186;DHT22;31152;49.190;8.122;2023-08-20T00:23:41;23.20;99.90
30186;DHT22;31152;49.190;8.122;2023-08-20T00:26:08;23.20;99.90
30186;DHT22;31152;49.190;8.122;2023-08-20T00:28:35;23.20;99.90
30186;DHT22;31152;49.190;8.122;2023-08-20T00:31:05;23.20;99.90
30186;DHT22;31152;49.190;8.122;2023-08-20T00:33:32;23.20;99.90
30186;DHT22;31152;49.190;8.122;2023-08-20T00:35:58;23.20;99.90
30186;DHT22;31152;49.190;8.122;2023-08-20T00:38:25;23.10;99.90
30186;DHT22;31152;49.190;8.122;2023-08-20T00:40:52;23.10;99.90
30186;DHT22;31152;49.190;8.122;2023-08-20T00:43:19;23.10;99.90
30186;DHT22;31152;49.190;8.122;2023-08-20T00:45:45;23.10;99.90
30186;DHT22;31152;49.190;8.122;2023-08-20T00:48:12;23.00;99.90
30186;DHT22;31152;49.190;8.122;2023-08-20T00:50:40;23.00;99.90
30186;DHT22;31152;49.190;8.122;2023-08-20T00:53:08;23.00;99.90
30186;DHT22;31152;49.190;8.122;2023-08-20T00:55:38;23.00;99.90
30186;DHT22;31152;49.190;8.122;2023-08-20T00:58:07;23.00;99.90
30186;DHT22;31152;49.190;8.122;2023-08-20T01:00:34;23.00;99.90
30186;DHT22;31152;49.190;8.122;2023-08-20T01:03:01;22.90;99.90
30186;DHT22;31152;49.190;8.122;2023-08-20T01:05:32;22.90;99.90
30186;DHT22;31152;49.190;8.122;2023-08-20T01:08:03;22.90;99.90
30186;DHT22;31152;49.190;8.122;2023-08-20T01:10:42;22.90;99.90
30186;DHT22;31152;49.190;8.122;2023-08-20T01:13:10;22.90;99.90
30186;DHT22;31152;49.190;8.122;2023-08-20T01:15:40;22.90;99.90
30186;DHT22;31152;49.190;8.122;2023-08-20T01:18:07;22.90;99.90
30186;DHT22;31152;49.190;8.122;2023-08-20T01:20:40;22.90;99.90
30186;DHT22;31152;49.190;8.122;2023-08-20T01:29:20;22.90;99.90
30186;DHT22;31152;49.190;8.122;2023-08-20T01:31:48;22.80;99.90
30186;DHT22;31152;49.190;8.122;2023-08-20T01:34:15;22.80;99.90
30186;DHT22;31152;49.190;8.122;2023-08-20T01:36:41;22.80;99.90
30186;DHT22;31152;49.190;8.122;2023-08-20T01:39:08;22.80;99.90
30186;DHT22;31152;49.190;8.122;2023-08-20T01:41:35;22.70;99.90
30186;DHT22;31152;49.190;8.122;2023-08-20T01:44:02;22.70;99.90
30186;DHT22;31152;49.190;8.122;2023-08-20T01:46:28;22.70;99.90
30186;DHT22;31152;49.190;8.122;2023-08-20T01:48:58;22.70;99.90
30186;DHT22;31152;49.190;8.122;2023-08-20T01:51:25;22.60;99.90
30186;DHT22;31152;49.190;8.122;2023-08-20T01:53:52;22.70;99.90
30186;DHT22;31152;49.190;8.122;2023-08-20T01:56:18;22.70;99.90
30186;DHT22;31152;49.190;8.122;2023-08-20T01:58:45;22.70;99.90
30186;DHT22;31152;49.190;8.122;2023-08-20T02:01:12;22.70;99.90
30186;DHT22;31152;49.190;8.122;2023-08-20T02:03:39;22.60;99.90
30186;DHT22;31152;49.190;8.122;2023-08-20T02:06:05;22.60;99.90
30186;DHT22;31152;49.190;8.122;2023-08-20T02:08:32;22.60;99.90
30186;DHT22;31152;49.190;8.122;2023-08-20T02:11:03;22.50;99.90
30186;DHT22;31152;49.190;8.122;2023-08-20T02:13:31;22.50;99.90
30186;DHT22;31152;49.190;8.122;2023-08-20T02:15:59;22.50;99.90
30186;DHT22;31152;49.190;8.122;2023-08-20T02:18:25;22.40;99.90
30186;DHT22;31152;49.190;8.122;2023-08-20T02:20:55;22.40;99.90
30186;DHT22;31152;49.190;8.122;2023-08-20T02:23:22;22.40;99.90
30186;DHT22;31152;49.190;8.122;2023-08-20T02:25:49;22.30;99.90
30186;DHT22;31152;49.190;8.122;2023-08-20T02:28:18;22.30;99.90
30186;DHT22;31152;49.190;8.122;2023-08-20T02:30:47;22.30;99.90
30186;DHT22;31152;49.190;8.122;2023-08-20T02:33:16;22.30;99.90
30186;DHT22;31152;49.190;8.122;2023-08-20T02:35:43;22.20;99.90
30186;DHT22;31152;49.190;8.122;2023-08-20T02:38:10;22.20;99.90
30186;DHT22;31152;49.190;8.122;2023-08-20T02:40:41;22.20;99.90
30186;DHT22;31152;49.190;8.122;2023-08-20T02:43:08;22.10;99.90
30186;DHT22;31152;49.190;8.122;2023-08-20T02:45:42;22.10;99.90
30186;DHT22;31152;49.190;8.122;2023-08-20T02:48:10;22.10;99.90
30186;DHT22;31152;49.190;8.122;2023-08-20T02:50:37;22.10;99.90
30186;DHT22;31152;49.190;8.122;2023-08-20T02:53:04;22.10;99.90
30186;DHT22;31152;49.190;8.122;2023-08-20T02:55:31;22.00;99.90
30186;DHT22;31152;49.190;8.122;2023-08-20T02:57:59;22.00;99.90
30186;DHT22;31152;49.190;8.122;2023-08-20T03:00:29;22.00;99.90
30186;DHT22;31152;49.190;8.122;2023-08-20T03:02:56;22.00;99.90
30186;DHT22;31152;49.190;8.122;2023-08-20T03:05:25;22.00;99.90
30186;DHT22;31152;49.190;8.122;2023-08-20T03:07:52;22.00;99.90
30186;DHT22;31152;49.190;8.122;2023-08-20T03:10:18;22.00;99.90
30186;DHT22;31152;49.190;8.122;2023-08-20T03:12:45;22.00;99.90
30186;DHT22;31152;49.190;8.122;2023-08-20T03:15:12;21.90;99.90
30186;DHT22;31152;49.190;8.122;2023-08-20T03:17:41;22.00;99.90
30186;DHT22;31152;49.190;8.122;2023-08-20T03:20:08;21.90;99.90
30186;DHT22;31152;49.190;8.122;2023-08-20T03:22:37;21.90;99.90
30186;DHT22;31152;49.190;8.122;2023-08-20T03:25:04;21.90;99.90
30186;DHT22;31152;49.190;8.122;2023-08-20T03:27:34;21.90;99.90
30186;DHT22;31152;49.190;8.122;2023-08-20T03:30:02;21.80;99.90
30186;DHT22;31152;49.190;8.122;2023-08-20T03:32:30;21.80;99.90
30186;DHT22;31152;49.190;8.122;2023-08-20T03:34:59;21.80;99.90
30186;DHT22;31152;49.190;8.122;2023-08-20T03:37:26;21.90;99.90
30186;DHT22;31152;49.190;8.122;2023-08-20T03:39:53;21.80;99.90
30186;DHT22;31152;49.190;8.122;2023-08-20T03:42:19;21.80;99.90
30186;DHT22;31152;49.190;8.122;2023-08-20T03:44:46;21.80;99.90
30186;DHT22;31152;49.190;8.122;2023-08-20T03:47:13;21.80;99.90
30186;DHT22;31152;49.190;8.122;2023-08-20T03:49:47;21.90;99.90
30186;DHT22;31152;49.190;8.122;2023-08-20T03:52:19;21.80;99.90
30186;DHT22;31152;49.190;8.122;2023-08-20T03:54:46;21.90;99.90
30186;DHT22;31152;49.190;8.122;2023-08-20T03:57:12;21.90;99.90
30186;DHT22;31152;49.190;8.122;2023-08-20T03:59:39;21.90;99.90
30186;DHT22;31152;49.190;8.122;2023-08-20T04:02:06;21.90;99.90
30186;DHT22;31152;49.190;8.122;2023-08-20T04:04:33;21.80;99.90
30186;DHT22;31152;49.190;8.122;2023-08-20T04:07:00;21.90;99.90
30186;DHT22;31152;49.190;8.122;2023-08-20T04:09:27;21.90;99.90
30186;DHT22;31152;49.190;8.122;2023-08-20T04:11:56;21.90;99.90
30186;DHT22;31152;49.190;8.122;2023-08-20T04:14:25;21.90;99.90
30186;DHT22;31152;49.190;8.122;2023-08-20T04:16:52;21.90;99.90
30186;DHT22;31152;49.190;8.122;2023-08-20T04:19:18;21.90;99.90
30186;DHT22;31152;49.190;8.122;2023-08-20T04:21:45;21.90;99.90
30186;DHT22;31152;49.190;8.122;2023-08-20T04:24:12;21.90;99.90
30186;DHT22;31152;49.190;8.122;2023-08-20T04:26:39;21.90;99.90
30186;DHT22;31152;49.190;8.122;2023-08-20T04:29:06;21.90;99.90
30186;DHT22;31152;49.190;8.122;2023-08-20T04:31:32;21.90;99.90
30186;DHT22;31152;49.190;8.122;2023-08-20T04:33:59;21.90;99.90
30186;DHT22;31152;49.190;8.122;2023-08-20T04:36:26;21.90;99.90
30186;DHT22;31152;49.190;8.122;2023-08-20T04:38:52;22.00;99.90
30186;DHT22;31152;49.190;8.122;2023-08-20T04:41:19;21.90;99.90
30186;DHT22;31152;49.190;8.122;2023-08-20T04:43:46;21.90;99.90
30186;DHT22;31152;49.190;8.122;2023-08-20T04:46:13;21.90;99.90
30186;DHT22;31152;49.190;8.122;2023-08-20T04:48:39;22.00;99.90
30186;DHT22;31152;49.190;8.122;2023-08-20T04:51:07;21.90;99.90
30186;DHT22;31152;49.190;8.122;2023-08-20T04:53:33;22.00;99.90
30186;DHT22;31152;49.190;8.122;2023-08-20T04:56:00;22.00;99.90
30186;DHT22;31152;49.190;8.122;2023-08-20T04:58:29;22.00;99.90
30186;DHT22;31152;49.190;8.122;2023-08-20T05:00:56;22.00;99.90
30186;DHT22;31152;49.190;8.122;2023-08-20T05:03:25;22.10;99.90
30186;DHT22;31152;49.190;8.122;2023-08-20T05:05:52;22.10;99.90
30186;DHT22;31152;49.190;8.122;2023-08-20T05:08:21;22.10;99.90
30186;DHT22;31152;49.190;8.122;2023-08-20T05:10:51;22.10;99.90
30186;DHT22;31152;49.190;8.122;2023-08-20T05:13:20;22.20;99.90
30186;DHT22;31152;49.190;8.122;2023-08-20T05:15:47;22.20;99.90
30186;DHT22;31152;49.190;8.122;2023-08-20T05:18:13;22.20;99.90
30186;DHT22;31152;49.190;8.122;2023-08-20T05:20:40;22.20;99.90
30186;DHT22;31152;49.190;8.122;2023-08-20T05:23:08;22.30;99.90
30186;DHT22;31152;49.190;8.122;2023-08-20T05:25:34;22.30;99.90
30186;DHT22;31152;49.190;8.122;2023-08-20T05:28:01;22.30;99.90
30186;DHT22;31152;49.190;8.122;2023-08-20T05:30:28;22.30;99.90
30186;DHT22;31152;49.190;8.122;2023-08-20T05:32:54;22.40;99.90
30186;DHT22;31152;49.190;8.122;2023-08-20T05:35:21;22.40;99.90
30186;DHT22;31152;49.190;8.122;2023-08-20T05:37:48;22.50;99.90
30186;DHT22;31152;49.190;8.122;2023-08-20T05:40:15;22.50;99.90
30186;DHT22;31152;49.190;8.122;2023-08-20T05:42:42;22.50;99.90
30186;DHT22;31152;49.190;8.122;2023-08-20T05:45:13;22.60;99.90
30186;DHT22;31152;49.190;8.122;2023-08-20T05:47:42;22.60;99.90
30186;DHT22;31152;49.190;8.122;2023-08-20T05:50:09;22.70;99.90
30186;DHT22;31152;49.190;8.122;2023-08-20T05:52:36;22.70;99.90
30186;DHT22;31152;49.190;8.122;2023-08-20T05:55:04;22.80;99.90
30186;DHT22;31152;49.190;8.122;2023-08-20T05:57:31;22.90;99.90
30186;DHT22;31152;49.190;8.122;2023-08-20T05:59:57;22.90;99.90
30186;DHT22;31152;49.190;8.122;2023-08-20T06:02:24;23.00;99.90
30186;DHT22;31152;49.190;8.122;2023-08-20T06:04:51;23.10;99.90
30186;DHT22;31152;49.190;8.122;2023-08-20T06:07:18;23.10;99.90
30186;DHT22;31152;49.190;8.122;2023-08-20T06:09:44;23.20;99.90
30186;DHT22;31152;49.190;8.122;2023-08-20T06:12:11;23.30;99.90
30186;DHT22;31152;49.190;8.122;2023-08-20T06:14:38;23.30;99.90
30186;DHT22;31152;49.190;8.122;2023-08-20T06:17:07;23.40;99.90
30186;DHT22;31152;49.190;8.122;2023-08-20T06:19:34;23.50;99.90
30186;DHT22;31152;49.190;8.122;2023-08-20T06:22:03;23.50;99.90
30186;DHT22;31152;49.190;8.122;2023-08-20T06:24:31;23.60;99.90
30186;DHT22;31152;49.190;8.122;2023-08-20T06:27:00;23.70;99.90
30186;DHT22;31152;49.190;8.122;2023-08-20T06:29:27;23.80;99.90
30186;DHT22;31152;49.190;8.122;2023-08-20T06:31:54;23.90;99.90
30186;DHT22;31152;49.190;8.122;2023-08-20T06:34:21;24.10;99.90
30186;DHT22;31152;49.190;8.122;2023-08-20T06:36:50;24.20;99.90
30186;DHT22;31152;49.190;8.122;2023-08-20T06:39:17;24.30;99.90
30186;DHT22;31152;49.190;8.122;2023-08-20T06:41:45;24.40;99.90
30186;DHT22;31152;49.190;8.122;2023-08-20T06:44:12;24.40;99.90
30186;DHT22;31152;49.190;8.122;2023-08-20T06:46:39;24.50;99.90
30186;DHT22;31152;49.190;8.122;2023-08-20T06:49:06;24.50;99.90
30186;DHT22;31152;49.190;8.122;2023-08-20T06:51:36;24.60;99.90
30186;DHT22;31152;49.190;8.122;2023-08-20T06:54:03;24.70;99.90
30186;DHT22;31152;49.190;8.122;2023-08-20T06:56:33;24.70;99.90
30186;DHT22;31152;49.190;8.122;2023-08-20T06:59:00;24.80;99.90
30186;DHT22;31152;49.190;8.122;2023-08-20T07:01:29;24.90;99.90
30186;DHT22;31152;49.190;8.122;2023-08-20T07:03:56;25.00;99.90
30186;DHT22;31152;49.190;8.122;2023-08-20T07:06:25;25.10;99.90
30186;DHT22;31152;49.190;8.122;2023-08-20T07:08:52;25.30;99.90
30186;DHT22;31152;49.190;8.122;2023-08-20T07:11:19;25.40;99.90
30186;DHT22;31152;49.190;8.122;2023-08-20T07:13:48;25.50;99.90
30186;DHT22;31152;49.190;8.122;2023-08-20T07:16:15;25.60;99.90
30186;DHT22;31152;49.190;8.122;2023-08-20T07:18:41;25.70;99.90
30186;DHT22;31152;49.190;8.122;2023-08-20T07:21:08;25.80;99.90
30186;DHT22;31152;49.190;8.122;2023-08-20T07:23:37;25.90;99.90
30186;DHT22;31152;49.190;8.122;2023-08-20T07:26:06;26.00;99.90
30186;DHT22;31152;49.190;8.122;2023-08-20T07:28:33;26.20;99.90
30186;DHT22;31152;49.190;8.122;2023-08-20T07:31:19;26.30;99.90
30186;DHT22;31152;49.190;8.122;2023-08-20T07:33:47;26.40;99.90
30186;DHT22;31152;49.190;8.122;2023-08-20T07:36:17;26.50;99.90
30186;DHT22;31152;49.190;8.122;2023-08-20T07:38:47;26.40;99.90
30186;DHT22;31152;49.190;8.122;2023-08-20T07:41:14;26.50;99.90
30186;DHT22;31152;49.190;8.122;2023-08-20T07:43:41;26.50;99.90
30186;DHT22;31152;49.190;8.122;2023-08-20T07:46:09;26.60;99.90
30186;DHT22;31152;49.190;8.122;2023-08-20T07:48:39;26.60;99.90
30186;DHT22;31152;49.190;8.122;2023-08-20T07:51:06;26.70;99.90
30186;DHT22;31152;49.190;8.122;2023-08-20T07:53:33;26.90;99.90
30186;DHT22;31152;49.190;8.122;2023-08-20T07:56:03;27.00;99.90
30186;DHT22;31152;49.190;8.122;2023-08-20T07:58:30;27.10;99.90
30186;DHT22;31152;49.190;8.122;2023-08-20T08:00:59;27.20;99.90
30186;DHT22;31152;49.190;8.122;2023-08-20T08:03:26;27.30;99.90
30186;DHT22;31152;49.190;8.122;2023-08-20T08:05:54;27.50;99.90
30186;DHT22;31152;49.190;8.122;2023-08-20T08:08:22;27.60;99.90
30186;DHT22;31152;49.190;8.122;2023-08-20T08:10:49;27.90;99.90
30186;DHT22;31152;49.190;8.122;2023-08-20T08:13:19;28.00;99.90
30186;DHT22;31152;49.190;8.122;2023-08-20T08:15:49;28.20;99.90
30186;DHT22;31152;49.190;8.122;2023-08-20T08:18:16;28.40;99.90
30186;DHT22;31152;49.190;8.122;2023-08-20T08:20:45;28.50;99.90
30186;DHT22;31152;49.190;8.122;2023-08-20T08:23:15;28.70;99.90
30186;DHT22;31152;49.190;8.122;2023-08-20T08:25:42;28.90;99.90
30186;DHT22;31152;49.190;8.122;2023-08-20T08:28:09;29.00;99.90
30186;DHT22;31152;49.190;8.122;2023-08-20T08:30:38;29.10;99.90
30186;DHT22;31152;49.190;8.122;2023-08-20T08:33:06;29.10;99.90
30186;DHT22;31152;49.190;8.122;2023-08-20T08:35:36;29.10;99.90
30186;DHT22;31152;49.190;8.122;2023-08-20T08:38:03;29.30;99.90
30186;DHT22;31152;49.190;8.122;2023-08-20T08:40:30;29.40;99.90
30186;DHT22;31152;49.190;8.122;2023-08-20T08:42:57;29.60;99.90
30186;DHT22;31152;49.190;8.122;2023-08-20T08:45:27;29.60;99.90
30186;DHT22;31152;49.190;8.122;2023-08-20T08:47:54;29.50;99.90
30186;DHT22;31152;49.190;8.122;2023-08-20T08:50:22;29.70;99.90
30186;DHT22;31152;49.190;8.122;2023-08-20T08:52:53;29.80;99.90
30186;DHT22;31152;49.190;8.122;2023-08-20T08:55:20;30.00;99.90
30186;DHT22;31152;49.190;8.122;2023-08-20T08:57:49;30.10;99.90
30186;DHT22;31152;49.190;8.122;2023-08-20T09:00:18;30.10;99.90
30186;DHT22;31152;49.190;8.122;2023-08-20T09:02:46;30.20;99.90
30186;DHT22;31152;49.190;8.122;2023-08-20T09:05:15;30.30;99.90
30186;DHT22;31152;49.190;8.122;2023-08-20T09:07:43;30.50;99.90
30186;DHT22;31152;49.190;8.122;2023-08-20T09:10:11;30.70;99.90
30186;DHT22;31152;49.190;8.122;2023-08-20T09:12:38;30.70;99.70
30186;DHT22;31152;49.190;8.122;2023-08-20T09:15:10;30.80;99.80
30186;DHT22;31152;49.190;8.122;2023-08-20T09:17:37;30.90;99.80
30186;DHT22;31152;49.190;8.122;2023-08-20T09:20:07;31.10;99.50
30186;DHT22;31152;49.190;8.122;2023-08-20T09:22:35;31.20;98.60
30186;DHT22;31152;49.190;8.122;2023-08-20T09:25:02;31.30;98.70
30186;DHT22;31152;49.190;8.122;2023-08-20T09:27:29;31.40;98.50
30186;DHT22;31152;49.190;8.122;2023-08-20T09:30:05;31.60;98.20
30186;DHT22;31152;49.190;8.122;2023-08-20T09:32:32;31.70;97.20
30186;DHT22;31152;49.190;8.122;2023-08-20T09:35:01;31.90;96.60
30186;DHT22;31152;49.190;8.122;2023-08-20T09:37:28;31.90;97.20
30186;DHT22;31152;49.190;8.122;2023-08-20T09:39:54;31.90;96.70
30186;DHT22;31152;49.190;8.122;2023-08-20T09:42:21;31.90;97.10
30186;DHT22;31152;49.190;8.122;2023-08-20T09:44:48;32.00;97.40
30186;DHT22;31152;49.190;8.122;2023-08-20T09:47:18;32.20;96.40
30186;DHT22;31152;49.190;8.122;2023-08-20T09:49:48;32.40;96.30
30186;DHT22;31152;49.190;8.122;2023-08-20T09:52:39;32.60;95.80
30186;DHT22;31152;49.190;8.122;2023-08-20T09:55:16;32.80;95.20
30186;DHT22;31152;49.190;8.122;2023-08-20T09:57:48;32.90;94.70
30186;DHT22;31152;49.190;8.122;2023-08-20T10:00:15;33.10;94.30
30186;DHT22;31152;49.190;8.122;2023-08-20T10:02:44;33.10;93.90
30186;DHT22;31152;49.190;8.122;2023-08-20T10:05:12;32.90;94.00
30186;DHT22;31152;49.190;8.122;2023-08-20T10:07:39;32.90;95.10
30186;DHT22;31152;49.190;8.122;2023-08-20T10:10:08;32.60;94.30
30186;DHT22;31152;49.190;8.122;2023-08-20T10:12:39;32.50;94.70
30186;DHT22;31152;49.190;8.122;2023-08-20T10:15:10;32.70;94.60
30186;DHT22;31152;49.190;8.122;2023-08-20T10:17:38;32.80;94.50
30186;DHT22;31152;49.190;8.122;2023-08-20T10:20:09;33.10;93.90
30186;DHT22;31152;49.190;8.122;2023-08-20T10:22:39;33.20;93.20
30186;DHT22;31152;49.190;8.122;2023-08-20T10:25:11;33.40;93.40
30186;DHT22;31152;49.190;8.122;2023-08-20T10:27:40;33.60;92.40
30186;DHT22;31152;49.190;8.122;2023-08-20T10:30:17;33.80;92.00
30186;DHT22;31152;49.190;8.122;2023-08-20T10:35:27;34.20;91.40
30186;DHT22;31152;49.190;8.122;2023-08-20T10:40:49;34.50;91.10
30186;DHT22;31152;49.190;8.122;2023-08-20T10:43:36;34.60;90.30
30186;DHT22;31152;49.190;8.122;2023-08-20T10:48:56;34.60;90.30
30186;DHT22;31152;49.190;8.122;2023-08-20T10:51:36;34.50;89.70
30186;DHT22;31152;49.190;8.122;2023-08-20T10:54:06;34.50;89.80
30186;DHT22;31152;49.190;8.122;2023-08-20T10:56:55;34.50;89.00
30186;DHT22;31152;49.190;8.122;2023-08-20T10:59:27;34.50;89.10
30186;DHT22;31152;49.190;8.122;2023-08-20T11:01:56;34.60;89.30
30186;DHT22;31152;49.190;8.122;2023-08-20T11:04:25;34.80;88.20
30186;DHT22;31152;49.190;8.122;2023-08-20T11:06:55;34.90;86.20
30186;DHT22;31152;49.190;8.122;2023-08-20T11:09:26;35.00;85.80
30186;DHT22;31152;49.190;8.122;2023-08-20T11:11:56;35.20;84.60
30186;DHT22;31152;49.190;8.122;2023-08-20T11:14:25;35.40;82.00
30186;DHT22;31152;49.190;8.122;2023-08-20T11:16:52;35.50;83.20
30186;DHT22;31152;49.190;8.122;2023-08-20T11:19:23;35.00;82.10
30186;DHT22;31152;49.190;8.122;2023-08-20T11:21:52;35.00;84.20
30186;DHT22;31152;49.190;8.122;2023-08-20T11:24:21;35.30;82.50
30186;DHT22;31152;49.190;8.122;2023-08-20T11:26:48;35.60;82.20
30186;DHT22;31152;49.190;8.122;2023-08-20T11:29:17;35.90;81.40
30186;DHT22;31152;49.190;8.122;2023-08-20T11:31:48;36.20;80.60
30186;DHT22;31152;49.190;8.122;2023-08-20T11:34:16;35.70;80.50
30186;DHT22;31152;49.190;8.122;2023-08-20T11:36:44;35.90;78.60
30186;DHT22;31152;49.190;8.122;2023-08-20T11:39:11;35.90;77.40
30186;DHT22;31152;49.190;8.122;2023-08-20T11:41:40;35.80;77.50
30186;DHT22;31152;49.190;8.122;2023-08-20T11:44:10;35.60;79.10
30186;DHT22;31152;49.190;8.122;2023-08-20T11:46:43;35.70;81.20
30186;DHT22;31152;49.190;8.122;2023-08-20T11:49:12;35.70;79.30
30186;DHT22;31152;49.190;8.122;2023-08-20T11:51:48;35.70;80.50
30186;DHT22;31152;49.190;8.122;2023-08-20T11:54:19;35.80;80.70
30186;DHT22;31152;49.190;8.122;2023-08-20T11:56:50;35.80;80.30
30186;DHT22;31152;49.190;8.122;2023-08-20T11:59:19;36.20;80.00
30186;DHT22;31152;49.190;8.122;2023-08-20T12:01:56;36.50;78.00
30186;DHT22;31152;49.190;8.122;2023-08-20T12:04:25;36.70;74.50
30186;DHT22;31152;49.190;8.122;2023-08-20T12:07:14;36.90;74.50
30186;DHT22;31152;49.190;8.122;2023-08-20T12:09:41;37.20;73.70
30186;DHT22;31152;49.190;8.122;2023-08-20T12:12:09;37.40;72.90
30186;DHT22;31152;49.190;8.122;2023-08-20T12:14:36;37.40;73.30
30186;DHT22;31152;49.190;8.122;2023-08-20T12:17:04;37.40;72.00
30186;DHT22;31152;49.190;8.122;2023-08-20T12:19:30;37.00;73.70
30186;DHT22;31152;49.190;8.122;2023-08-20T12:21:57;36.80;73.20
30186;DHT22;31152;49.190;8.122;2023-08-20T12:24:24;36.80;73.90
30186;DHT22;31152;49.190;8.122;2023-08-20T12:26:52;37.10;73.30
30186;DHT22;31152;49.190;8.122;2023-08-20T12:29:19;37.10;72.80
30186;DHT22;31152;49.190;8.122;2023-08-20T12:31:48;36.70;72.50
30186;DHT22;31152;49.190;8.122;2023-08-20T12:34:15;36.00;73.70
30186;DHT22;31152;49.190;8.122;2023-08-20T12:36:41;35.90;76.60
30186;DHT22;31152;49.190;8.122;2023-08-20T12:39:11;35.90;75.30
30186;DHT22;31152;49.190;8.122;2023-08-20T12:41:37;35.70;75.20
30186;DHT22;31152;49.190;8.122;2023-08-20T12:44:05;35.40;76.50
30186;DHT22;31152;49.190;8.122;2023-08-20T12:46:32;35.20;78.10
30186;DHT22;31152;49.190;8.122;2023-08-20T12:48:58;35.30;78.30
30186;DHT22;31152;49.190;8.122;2023-08-20T12:51:26;35.40;76.30
30186;DHT22;31152;49.190;8.122;2023-08-20T12:53:53;35.50;76.40
30186;DHT22;31152;49.190;8.122;2023-08-20T12:56:22;35.70;76.10
30186;DHT22;31152;49.190;8.122;2023-08-20T12:58:49;35.90;75.40
30186;DHT22;31152;49.190;8.122;2023-08-20T13:01:16;36.20;74.80
30186;DHT22;31152;49.190;8.122;2023-08-20T13:03:43;36.40;73.60
30186;DHT22;31152;49.190;8.122;2023-08-20T13:06:15;36.30;73.80
30186;DHT22;31152;49.190;8.122;2023-08-20T13:08:42;36.30;73.80
30186;DHT22;31152;49.190;8.122;2023-08-20T13:11:10;36.40;70.90
30186;DHT22;31152;49.190;8.122;2023-08-20T13:13:39;36.30;70.40
30186;DHT22;31152;49.190;8.122;2023-08-20T13:16:06;36.40;71.00
30186;DHT22;31152;49.190;8.122;2023-08-20T13:18:34;36.70;72.50
30186;DHT22;31152;49.190;8.122;2023-08-20T13:21:01;37.10;70.60
30186;DHT22;31152;49.190;8.122;2023-08-20T13:23:30;37.40;70.20
30186;DHT22;31152;49.190;8.122;2023-08-20T13:25:57;37.60;68.80
30186;DHT22;31152;49.190;8.122;2023-08-20T13:28:23;37.70;66.70
30186;DHT22;31152;49.190;8.122;2023-08-20T13:30:55;37.80;66.20
30186;DHT22;31152;49.190;8.122;2023-08-20T13:33:22;37.70;65.00
30186;DHT22;31152;49.190;8.122;2023-08-20T13:35:51;37.20;64.50
30186;DHT22;31152;49.190;8.122;2023-08-20T13:38:18;37.10;67.00
30186;DHT22;31152;49.190;8.122;2023-08-20T13:40:47;37.10;67.40
30186;DHT22;31152;49.190;8.122;2023-08-20T13:43:15;37.20;66.50
30186;DHT22;31152;49.190;8.122;2023-08-20T13:45:42;37.10;65.50
30186;DHT22;31152;49.190;8.122;2023-08-20T13:48:11;37.10;66.20
30186;DHT22;31152;49.190;8.122;2023-08-20T13:50:38;37.10;66.70
30186;DHT22;31152;49.190;8.122;2023-08-20T13:53:04;37.10;65.40
30186;DHT22;31152;49.190;8.122;2023-08-20T13:55:31;37.20;66.40
30186;DHT22;31152;49.190;8.122;2023-08-20T13:58:01;37.30;65.00
30186;DHT22;31152;49.190;8.122;2023-08-20T14:00:28;37.50;64.30
30186;DHT22;31152;49.190;8.122;2023-08-20T14:02:55;37.30;63.20
30186;DHT22;31152;49.190;8.122;2023-08-20T14:05:22;36.90;64.70
30186;DHT22;31152;49.190;8.122;2023-08-20T14:07:49;36.60;65.10
30186;DHT22;31152;49.190;8.122;2023-08-20T14:10:18;36.70;66.60
30186;DHT22;31152;49.190;8.122;2023-08-20T14:12:45;36.80;66.60
30186;DHT22;31152;49.190;8.122;2023-08-20T14:15:12;36.90;64.90
30186;DHT22;31152;49.190;8.122;2023-08-20T14:17:39;37.00;64.30
30186;DHT22;31152;49.190;8.122;2023-08-20T14:20:08;37.10;64.50
30186;DHT22;31152;49.190;8.122;2023-08-20T14:22:40;37.10;65.40
30186;DHT22;31152;49.190;8.122;2023-08-20T14:25:07;37.30;64.80
30186;DHT22;31152;49.190;8.122;2023-08-20T14:27:34;37.20;64.00
30186;DHT22;31152;49.190;8.122;2023-08-20T14:30:01;37.10;64.40
30186;DHT22;31152;49.190;8.122;2023-08-20T14:32:29;37.10;65.00
30186;DHT22;31152;49.190;8.122;2023-08-20T14:34:56;37.10;64.90
30186;DHT22;31152;49.190;8.122;2023-08-20T14:37:25;36.90;64.60
30186;DHT22;31152;49.190;8.122;2023-08-20T14:39:52;37.00;64.90
30186;DHT22;31152;49.190;8.122;2023-08-20T14:42:19;36.70;63.80
30186;DHT22;31152;49.190;8.122;2023-08-20T14:44:48;36.90;64.30
30186;DHT22;31152;49.190;8.122;2023-08-20T14:47:17;36.80;64.00
30186;DHT22;31152;49.190;8.122;2023-08-20T14:49:44;36.80;64.60
30186;DHT22;31152;49.190;8.122;2023-08-20T14:52:11;36.80;64.50
30186;DHT22;31152;49.190;8.122;2023-08-20T14:54:48;36.80;63.50
30186;DHT22;31152;49.190;8.122;2023-08-20T14:57:17;36.90;64.80
30186;DHT22;31152;49.190;8.122;2023-08-20T14:59:47;37.00;64.50
30186;DHT22;31152;49.190;8.122;2023-08-20T15:02:14;37.00;63.90
30186;DHT22;31152;49.190;8.122;2023-08-20T15:04:40;37.00;63.90
30186;DHT22;31152;49.190;8.122;2023-08-20T15:07:10;36.70;63.50
30186;DHT22;31152;49.190;8.122;2023-08-20T15:09:39;36.60;64.60
30186;DHT22;31152;49.190;8.122;2023-08-20T15:12:06;36.40;63.90
30186;DHT22;31152;49.190;8.122;2023-08-20T15:14:35;36.20;64.80
30186;DHT22;31152;49.190;8.122;2023-08-20T15:17:02;36.10;65.70
30186;DHT22;31152;49.190;8.122;2023-08-20T15:19:31;35.90;66.20
30186;DHT22;31152;49.190;8.122;2023-08-20T15:21:58;36.00;66.20
30186;DHT22;31152;49.190;8.122;2023-08-20T15:24:25;36.00;66.30
30186;DHT22;31152;49.190;8.122;2023-08-20T15:26:51;36.00;66.00
30186;DHT22;31152;49.190;8.122;2023-08-20T15:29:20;36.00;65.40
30186;DHT22;31152;49.190;8.122;2023-08-20T15:31:47;36.00;65.50
30186;DHT22;31152;49.190;8.122;2023-08-20T15:34:15;36.00;65.50
30186;DHT22;31152;49.190;8.122;2023-08-20T15:36:42;36.10;65.50
30186;DHT22;31152;49.190;8.122;2023-08-20T15:39:09;36.10;65.60
30186;DHT22;31152;49.190;8.122;2023-08-20T15:41:36;36.10;65.20
30186;DHT22;31152;49.190;8.122;2023-08-20T15:44:05;36.10;65.50
30186;DHT22;31152;49.190;8.122;2023-08-20T15:46:32;36.10;65.10
30186;DHT22;31152;49.190;8.122;2023-08-20T15:48:59;36.10;65.80
30186;DHT22;31152;49.190;8.122;2023-08-20T15:51:26;36.00;65.20